sensor_id;sensor_type;location;lat;lon;timestamp;pressure;altitude;pressure_sealevel;temperature;humidity
75247;BME280;63844;50.042;19.224;2022-11-20T00:01:24;98809.34;;;-5.81;81.01
75247;BME280;63844;50.042;19.224;2022-11-20T00:03:53;98806.24;;;-5.80;81.17
75247;BME280;63844;50.042;19.224;2022-11-20T00:06:21;98805.04;;;-5.80;80.62
75247;BME280;63844;50.042;19.224;2022-11-20T00:08:48;98806.25;;;-5.84;80.81
75247;BME280;63844;50.042;19.224;2022-11-20T00:11:17;98800.59;;;-5.89;81.07
75247;BME280;63844;50.042;19.224;2022-11-20T00:13:46;98799.20;;;-5.92;80.50
75247;BME280;63844;50.042;19.224;2022-11-20T00:16:15;98800.06;;;-5.88;81.07
75247;BME280;63844;50.042;19.224;2022-11-20T00:18:43;98794.36;;;-5.85;80.88
75247;BME280;63844;50.042;19.224;2022-11-20T00:21:12;98791.59;;;-5.82;81.43
75247;BME280;63844;50.042;19.224;2022-11-20T00:23:39;98790.38;;;-5.77;81.31
75247;BME280;63844;50.042;19.224;2022-11-20T00:26:08;98786.73;;;-5.72;81.19
75247;BME280;63844;50.042;19.224;2022-11-20T00:28:35;98783.61;;;-5.67;81.90
75247;BME280;63844;50.042;19.224;2022-11-20T00:31:07;98780.14;;;-5.63;82.23
75247;BME280;63844;50.042;19.224;2022-11-20T00:33:33;98782.02;;;-5.56;81.86
75247;BME280;63844;50.042;19.224;2022-11-20T00:36:02;98779.91;;;-5.51;81.78
75247;BME280;63844;50.042;19.224;2022-11-20T00:38:29;98785.08;;;-5.50;81.87
75247;BME280;63844;50.042;19.224;2022-11-20T00:40:59;98781.48;;;-5.53;81.61
75247;BME280;63844;50.042;19.224;2022-11-20T00:43:26;98779.93;;;-5.55;81.27
75247;BME280;63844;50.042;19.224;2022-11-20T00:46:05;98781.33;;;-5.58;81.48
75247;BME280;63844;50.042;19.224;2022-11-20T00:48:32;98784.63;;;-5.63;81.32
75247;BME280;63844;50.042;19.224;2022-11-20T00:50:59;98788.27;;;-5.67;81.24
75247;BME280;63844;50.042;19.224;2022-11-20T00:53:25;98785.52;;;-5.71;80.90
75247;BME280;63844;50.042;19.224;2022-11-20T00:56:00;98778.11;;;-5.73;81.17
75247;BME280;63844;50.042;19.224;2022-11-20T00:58:35;98776.40;;;-5.75;80.85
75247;BME280;63844;50.042;19.224;2022-11-20T01:01:07;98771.59;;;-5.79;81.06
75247;BME280;63844;50.042;19.224;2022-11-20T01:03:36;98769.55;;;-5.82;80.88
75247;BME280;63844;50.042;19.224;2022-11-20T01:06:05;98766.27;;;-5.86;80.38
75247;BME280;63844;50.042;19.224;2022-11-20T01:08:34;98766.33;;;-5.94;81.52
75247;BME280;63844;50.042;19.224;2022-11-20T01:11:03;98767.22;;;-5.99;81.93
75247;BME280;63844;50.042;19.224;2022-11-20T01:13:31;98766.88;;;-6.01;80.94
75247;BME280;63844;50.042;19.224;2022-11-20T01:18:31;98762.61;;;-6.12;80.69
75247;BME280;63844;50.042;19.224;2022-11-20T01:21:05;98758.83;;;-6.15;81.07
75247;BME280;63844;50.042;19.224;2022-11-20T01:23:34;98754.86;;;-6.15;80.72
75247;BME280;63844;50.042;19.224;2022-11-20T01:26:06;98752.63;;;-6.14;80.88
75247;BME280;63844;50.042;19.224;2022-11-20T01:28:33;98750.55;;;-6.12;81.08
75247;BME280;63844;50.042;19.224;2022-11-20T01:31:00;98750.72;;;-6.11;81.69
75247;BME280;63844;50.042;19.224;2022-11-20T01:33:27;98748.13;;;-6.06;81.59
75247;BME280;63844;50.042;19.224;2022-11-20T01:36:03;98746.23;;;-6.05;81.88
75247;BME280;63844;50.042;19.224;2022-11-20T01:38:30;98744.66;;;-6.02;82.18
75247;BME280;63844;50.042;19.224;2022-11-20T01:40:57;98744.98;;;-5.98;81.97
75247;BME280;63844;50.042;19.224;2022-11-20T01:43:23;98747.73;;;-5.96;81.94
75247;BME280;63844;50.042;19.224;2022-11-20T01:48:42;98745.52;;;-6.01;81.84
75247;BME280;63844;50.042;19.224;2022-11-20T01:51:21;98740.85;;;-5.98;81.32
75247;BME280;63844;50.042;19.224;2022-11-20T01:53:49;98740.69;;;-5.99;81.12
75247;BME280;63844;50.042;19.224;2022-11-20T01:56:16;98739.17;;;-6.06;81.49
75247;BME280;63844;50.042;19.224;2022-11-20T01:58:53;98743.48;;;-6.07;81.35
75247;BME280;63844;50.042;19.224;2022-11-20T02:01:21;98740.55;;;-6.11;81.26
75247;BME280;63844;50.042;19.224;2022-11-20T02:03:48;98741.44;;;-6.14;80.91
75247;BME280;63844;50.042;19.224;2022-11-20T02:06:25;98741.27;;;-6.20;80.89
75247;BME280;63844;50.042;19.224;2022-11-20T02:08:52;98741.29;;;-6.23;81.16
75247;BME280;63844;50.042;19.224;2022-11-20T02:11:20;98745.09;;;-6.25;81.17
75247;BME280;63844;50.042;19.224;2022-11-20T02:13:47;98748.55;;;-6.28;80.89
75247;BME280;63844;50.042;19.224;2022-11-20T02:18:45;98760.27;;;-6.39;80.84
75247;BME280;63844;50.042;19.224;2022-11-20T02:21:27;98762.00;;;-6.41;81.10
75247;BME280;63844;50.042;19.224;2022-11-20T02:24:03;98768.02;;;-6.40;80.79
75247;BME280;63844;50.042;19.224;2022-11-20T02:26:34;98768.89;;;-6.39;80.92
75247;BME280;63844;50.042;19.224;2022-11-20T02:29:03;98768.55;;;-6.39;81.26
75247;BME280;63844;50.042;19.224;2022-11-20T02:31:36;98766.12;;;-6.38;81.49
75247;BME280;63844;50.042;19.224;2022-11-20T02:34:03;98769.39;;;-6.36;81.49
75247;BME280;63844;50.042;19.224;2022-11-20T02:36:30;98769.04;;;-6.33;81.99
75247;BME280;63844;50.042;19.224;2022-11-20T02:38:58;98768.34;;;-6.33;81.95
75247;BME280;63844;50.042;19.224;2022-11-20T02:41:36;98768.86;;;-6.30;82.13
75247;BME280;63844;50.042;19.224;2022-11-20T02:44:04;98768.00;;;-6.29;81.66
75247;BME280;63844;50.042;19.224;2022-11-20T02:46:32;98771.95;;;-6.26;81.39
75247;BME280;63844;50.042;19.224;2022-11-20T02:48:59;98766.25;;;-6.23;80.88
75247;BME280;63844;50.042;19.224;2022-11-20T02:51:26;98766.60;;;-6.21;81.02
75247;BME280;63844;50.042;19.224;2022-11-20T02:53:52;98765.71;;;-6.14;81.32
75247;BME280;63844;50.042;19.224;2022-11-20T02:56:19;98759.85;;;-6.06;80.96
75247;BME280;63844;50.042;19.224;2022-11-20T02:58:46;98758.44;;;-6.03;80.86
75247;BME280;63844;50.042;19.224;2022-11-20T03:01:13;98758.27;;;-6.04;80.49
75247;BME280;63844;50.042;19.224;2022-11-20T03:03:39;98755.71;;;-6.10;80.58
75247;BME280;63844;50.042;19.224;2022-11-20T03:06:06;98755.90;;;-6.14;80.41
75247;BME280;63844;50.042;19.224;2022-11-20T03:08:32;98761.09;;;-6.19;81.06
75247;BME280;63844;50.042;19.224;2022-11-20T03:11:06;98757.84;;;-6.30;81.28
75247;BME280;63844;50.042;19.224;2022-11-20T03:13:34;98757.84;;;-6.31;80.99
75247;BME280;63844;50.042;19.224;2022-11-20T03:16:12;98757.51;;;-6.36;80.68
75247;BME280;63844;50.042;19.224;2022-11-20T03:18:40;98759.75;;;-6.41;80.78
75247;BME280;63844;50.042;19.224;2022-11-20T03:21:07;98759.23;;;-6.44;80.97
75247;BME280;63844;50.042;19.224;2022-11-20T03:23:35;98759.08;;;-6.46;80.74
75247;BME280;63844;50.042;19.224;2022-11-20T03:28:36;98755.31;;;-6.58;81.16
75247;BME280;63844;50.042;19.224;2022-11-20T03:31:11;98759.09;;;-6.59;81.00
75247;BME280;63844;50.042;19.224;2022-11-20T03:33:39;98757.55;;;-6.57;81.31
75247;BME280;63844;50.042;19.224;2022-11-20T03:36:08;98756.17;;;-6.55;80.66
75247;BME280;63844;50.042;19.224;2022-11-20T03:38:35;98753.94;;;-6.56;80.57
75247;BME280;63844;50.042;19.224;2022-11-20T03:41:07;98747.73;;;-6.57;80.87
75247;BME280;63844;50.042;19.224;2022-11-20T03:43:35;98749.79;;;-6.52;80.95
75247;BME280;63844;50.042;19.224;2022-11-20T03:46:01;98750.48;;;-6.51;81.36
75247;BME280;63844;50.042;19.224;2022-11-20T03:48:28;98750.48;;;-6.48;81.42
75247;BME280;63844;50.042;19.224;2022-11-20T03:51:13;98753.74;;;-6.47;81.48
75247;BME280;63844;50.042;19.224;2022-11-20T03:53:41;98752.54;;;-6.45;81.14
75247;BME280;63844;50.042;19.224;2022-11-20T03:56:08;98754.77;;;-6.44;81.39
75247;BME280;63844;50.042;19.224;2022-11-20T03:58:36;98755.64;;;-6.48;81.38
75247;BME280;63844;50.042;19.224;2022-11-20T04:03:38;98755.30;;;-6.46;81.51
75247;BME280;63844;50.042;19.224;2022-11-20T04:06:10;98750.29;;;-6.39;81.33
75247;BME280;63844;50.042;19.224;2022-11-20T04:08:38;98752.16;;;-6.35;81.13
75247;BME280;63844;50.042;19.224;2022-11-20T04:13:37;98748.02;;;-6.27;81.02
75247;BME280;63844;50.042;19.224;2022-11-20T04:16:07;98744.23;;;-6.28;81.37
75247;BME280;63844;50.042;19.224;2022-11-20T04:18:34;98735.46;;;-6.35;81.13
75247;BME280;63844;50.042;19.224;2022-11-20T04:21:02;98732.54;;;-6.33;81.29
75247;BME280;63844;50.042;19.224;2022-11-20T04:23:29;98729.28;;;-6.42;81.05
75247;BME280;63844;50.042;19.224;2022-11-20T04:26:10;98727.56;;;-6.42;81.05
75247;BME280;63844;50.042;19.224;2022-11-20T04:28:38;98728.07;;;-6.42;80.93
75247;BME280;63844;50.042;19.224;2022-11-20T04:31:10;98731.54;;;-6.47;80.58
75247;BME280;63844;50.042;19.224;2022-11-20T04:33:37;98727.59;;;-6.47;80.84
75247;BME280;63844;50.042;19.224;2022-11-20T04:36:16;98728.78;;;-6.45;80.75
75247;BME280;63844;50.042;19.224;2022-11-20T04:38:44;98729.13;;;-6.48;80.68
75247;BME280;63844;50.042;19.224;2022-11-20T04:41:18;98729.48;;;-6.50;81.74
75247;BME280;63844;50.042;19.224;2022-11-20T04:43:56;98730.50;;;-6.48;82.63
75247;BME280;63844;50.042;19.224;2022-11-20T04:46:26;98724.65;;;-6.46;83.71
75247;BME280;63844;50.042;19.224;2022-11-20T04:48:53;98727.41;;;-6.47;86.25
75247;BME280;63844;50.042;19.224;2022-11-20T04:51:20;98722.60;;;-6.51;87.84
75247;BME280;63844;50.042;19.224;2022-11-20T04:53:46;98723.81;;;-6.54;88.34
75247;BME280;63844;50.042;19.224;2022-11-20T04:56:13;98718.83;;;-6.59;87.69
75247;BME280;63844;50.042;19.224;2022-11-20T04:58:41;98713.66;;;-6.57;83.78
75247;BME280;63844;50.042;19.224;2022-11-20T05:01:12;98711.23;;;-6.54;82.55
75247;BME280;63844;50.042;19.224;2022-11-20T05:03:40;98707.29;;;-6.53;82.62
75247;BME280;63844;50.042;19.224;2022-11-20T05:06:08;98705.56;;;-6.55;82.93
75247;BME280;63844;50.042;19.224;2022-11-20T05:08:34;98706.60;;;-6.54;83.48
75247;BME280;63844;50.042;19.224;2022-11-20T05:11:02;98706.41;;;-6.50;83.45
75247;BME280;63844;50.042;19.224;2022-11-20T05:13:29;98702.97;;;-6.49;83.77
75247;BME280;63844;50.042;19.224;2022-11-20T05:16:05;98703.32;;;-6.52;84.32
75247;BME280;63844;50.042;19.224;2022-11-20T05:18:33;98702.96;;;-6.52;84.37
75247;BME280;63844;50.042;19.224;2022-11-20T05:21:00;98699.85;;;-6.47;84.04
75247;BME280;63844;50.042;19.224;2022-11-20T05:23:29;98700.90;;;-6.50;84.17
75247;BME280;63844;50.042;19.224;2022-11-20T05:25:57;98702.63;;;-6.56;83.78
75247;BME280;63844;50.042;19.224;2022-11-20T05:28:25;98702.46;;;-6.56;83.90
75247;BME280;63844;50.042;19.224;2022-11-20T05:30:51;98701.42;;;-6.52;83.75
75247;BME280;63844;50.042;19.224;2022-11-20T05:33:18;98699.85;;;-6.45;83.61
75247;BME280;63844;50.042;19.224;2022-11-20T05:35:45;98695.56;;;-6.45;83.21
75247;BME280;63844;50.042;19.224;2022-11-20T05:38:11;98694.19;;;-6.51;82.94
75247;BME280;63844;50.042;19.224;2022-11-20T05:40:38;98696.61;;;-6.56;82.55
75247;BME280;63844;50.042;19.224;2022-11-20T05:43:04;98692.68;;;-6.65;82.52
75247;BME280;63844;50.042;19.224;2022-11-20T05:45:31;98692.85;;;-6.72;82.61
75247;BME280;63844;50.042;19.224;2022-11-20T05:47:58;98689.77;;;-6.73;82.27
75247;BME280;63844;50.042;19.224;2022-11-20T05:50:27;98688.74;;;-6.79;82.77
75247;BME280;63844;50.042;19.224;2022-11-20T05:52:54;98691.67;;;-6.89;82.08
75247;BME280;63844;50.042;19.224;2022-11-20T05:55:21;98697.36;;;-6.88;82.39
75247;BME280;63844;50.042;19.224;2022-11-20T05:57:47;98690.14;;;-6.91;82.07
75247;BME280;63844;50.042;19.224;2022-11-20T06:00:14;98693.24;;;-6.93;82.44
75247;BME280;63844;50.042;19.224;2022-11-20T06:02:41;98695.13;;;-6.96;81.95
75247;BME280;63844;50.042;19.224;2022-11-20T06:05:08;98698.05;;;-7.02;81.92
75247;BME280;63844;50.042;19.224;2022-11-20T06:07:34;98694.95;;;-7.03;81.50
75247;BME280;63844;50.042;19.224;2022-11-20T06:10:01;98693.93;;;-7.01;81.76
75247;BME280;63844;50.042;19.224;2022-11-20T06:12:28;98693.59;;;-7.00;81.87
75247;BME280;63844;50.042;19.224;2022-11-20T06:14:54;98693.58;;;-6.93;81.96
75247;BME280;63844;50.042;19.224;2022-11-20T06:17:20;98688.93;;;-6.88;81.54
75247;BME280;63844;50.042;19.224;2022-11-20T06:19:47;98693.74;;;-6.83;81.93
75247;BME280;63844;50.042;19.224;2022-11-20T06:22:14;98694.06;;;-6.78;82.22
75247;BME280;63844;50.042;19.224;2022-11-20T06:24:40;98693.36;;;-6.72;82.45
75247;BME280;63844;50.042;19.224;2022-11-20T06:27:06;98693.71;;;-6.69;82.66
75247;BME280;63844;50.042;19.224;2022-11-20T06:29:33;98695.24;;;-6.63;82.22
75247;BME280;63844;50.042;19.224;2022-11-20T06:32:00;98694.05;;;-6.65;82.49
75247;BME280;63844;50.042;19.224;2022-11-20T06:34:26;98688.55;;;-6.66;82.74
75247;BME280;63844;50.042;19.224;2022-11-20T06:36:53;98684.92;;;-6.59;82.70
75247;BME280;63844;50.042;19.224;2022-11-20T06:39:19;98686.27;;;-6.50;82.30
75247;BME280;63844;50.042;19.224;2022-11-20T06:41:46;98681.94;;;-6.42;82.46
75247;BME280;63844;50.042;19.224;2022-11-20T06:44:12;98676.26;;;-6.41;82.25
75247;BME280;63844;50.042;19.224;2022-11-20T06:46:39;98672.65;;;-6.42;81.76
75247;BME280;63844;50.042;19.224;2022-11-20T06:49:05;98670.77;;;-6.45;81.86
75247;BME280;63844;50.042;19.224;2022-11-20T06:51:32;98668.00;;;-6.45;82.01
75247;BME280;63844;50.042;19.224;2022-11-20T06:53:58;98668.33;;;-6.40;82.24
75247;BME280;63844;50.042;19.224;2022-11-20T06:56:27;98669.87;;;-6.35;82.23
75247;BME280;63844;50.042;19.224;2022-11-20T06:58:54;98665.91;;;-6.34;82.37
75247;BME280;63844;50.042;19.224;2022-11-20T07:01:20;98666.08;;;-6.32;83.35
75247;BME280;63844;50.042;19.224;2022-11-20T07:03:49;98666.05;;;-6.27;82.21
75247;BME280;63844;50.042;19.224;2022-11-20T07:06:17;98665.02;;;-6.25;82.37
75247;BME280;63844;50.042;19.224;2022-11-20T07:08:43;98666.21;;;-6.26;83.98
75247;BME280;63844;50.042;19.224;2022-11-20T07:11:11;98669.50;;;-6.30;85.45
75247;BME280;63844;50.042;19.224;2022-11-20T07:13:38;98672.42;;;-6.27;85.13
75247;BME280;63844;50.042;19.224;2022-11-20T07:16:06;98676.37;;;-6.25;85.80
75247;BME280;63844;50.042;19.224;2022-11-20T07:18:34;98680.33;;;-6.21;83.78
75247;BME280;63844;50.042;19.224;2022-11-20T07:21:10;98678.61;;;-6.25;85.58
75247;BME280;63844;50.042;19.224;2022-11-20T07:23:37;98677.58;;;-6.22;84.45
75247;BME280;63844;50.042;19.224;2022-11-20T07:26:10;98676.69;;;-6.18;84.96
75247;BME280;63844;50.042;19.224;2022-11-20T07:28:37;98675.45;;;-6.10;84.18
75247;BME280;63844;50.042;19.224;2022-11-20T07:31:04;98670.45;;;-6.07;83.55
75247;BME280;63844;50.042;19.224;2022-11-20T07:33:32;98673.19;;;-6.07;83.68
75247;BME280;63844;50.042;19.224;2022-11-20T07:35:59;98674.36;;;-6.00;83.65
75247;BME280;63844;50.042;19.224;2022-11-20T07:38:26;98676.34;;;-5.88;83.12
75247;BME280;63844;50.042;19.224;2022-11-20T07:40:57;98676.65;;;-5.82;83.37
75247;BME280;63844;50.042;19.224;2022-11-20T07:43:24;98675.23;;;-5.75;83.50
75247;BME280;63844;50.042;19.224;2022-11-20T07:45:51;98672.41;;;-5.64;83.52
75247;BME280;63844;50.042;19.224;2022-11-20T07:48:18;98674.25;;;-5.56;83.75
75247;BME280;63844;50.042;19.224;2022-11-20T07:50:44;98670.73;;;-5.47;83.54
75247;BME280;63844;50.042;19.224;2022-11-20T07:53:11;98669.63;;;-5.35;83.59
75247;BME280;63844;50.042;19.224;2022-11-20T07:55:40;98674.89;;;-5.25;83.43
75247;BME280;63844;50.042;19.224;2022-11-20T07:58:06;98674.45;;;-5.13;83.70
75247;BME280;63844;50.042;19.224;2022-11-20T08:00:33;98673.16;;;-5.04;83.49
75247;BME280;63844;50.042;19.224;2022-11-20T08:03:03;98677.92;;;-4.95;83.62
75247;BME280;63844;50.042;19.224;2022-11-20T08:05:30;98680.55;;;-4.82;83.31
75247;BME280;63844;50.042;19.224;2022-11-20T08:07:56;98684.57;;;-4.69;84.13
75247;BME280;63844;50.042;19.224;2022-11-20T08:10:23;98688.43;;;-4.58;83.04
75247;BME280;63844;50.042;19.224;2022-11-20T08:12:51;98691.30;;;-4.50;82.95
75247;BME280;63844;50.042;19.224;2022-11-20T08:15:38;98690.38;;;-4.45;82.99
75247;BME280;63844;50.042;19.224;2022-11-20T08:18:07;98684.06;;;-4.36;82.70
75247;BME280;63844;50.042;19.224;2022-11-20T08:20:34;98682.42;;;-4.29;82.91
75247;BME280;63844;50.042;19.224;2022-11-20T08:23:03;98683.77;;;-4.24;83.76
75247;BME280;63844;50.042;19.224;2022-11-20T08:25:33;98689.23;;;-4.19;83.29
75247;BME280;63844;50.042;19.224;2022-11-20T08:28:05;98685.86;;;-4.13;83.15
75247;BME280;63844;50.042;19.224;2022-11-20T08:30:33;98682.98;;;-4.04;82.81
75247;BME280;63844;50.042;19.224;2022-11-20T08:33:03;98676.30;;;-3.93;83.13
75247;BME280;63844;50.042;19.224;2022-11-20T08:35:35;98682.76;;;-3.86;83.69
75247;BME280;63844;50.042;19.224;2022-11-20T08:38:04;98679.59;;;-3.81;83.88
75247;BME280;63844;50.042;19.224;2022-11-20T08:40:32;98677.01;;;-3.70;83.54
75247;BME280;63844;50.042;19.224;2022-11-20T08:42:59;98675.29;;;-3.58;83.52
75247;BME280;63844;50.042;19.224;2022-11-20T08:45:25;98676.62;;;-3.55;83.33
75247;BME280;63844;50.042;19.224;2022-11-20T08:47:52;98674.50;;;-3.52;83.21
75247;BME280;63844;50.042;19.224;2022-11-20T08:50:19;98676.36;;;-3.50;83.12
75247;BME280;63844;50.042;19.224;2022-11-20T08:52:45;98674.89;;;-3.44;82.92
75247;BME280;63844;50.042;19.224;2022-11-20T08:55:12;98675.05;;;-3.42;82.86
75247;BME280;63844;50.042;19.224;2022-11-20T08:57:39;98671.73;;;-3.29;82.97
75247;BME280;63844;50.042;19.224;2022-11-20T09:00:07;98670.02;;;-3.19;83.45
75247;BME280;63844;50.042;19.224;2022-11-20T09:02:33;98668.77;;;-3.06;82.80
75247;BME280;63844;50.042;19.224;2022-11-20T09:05:00;98665.69;;;-2.98;83.09
75247;BME280;63844;50.042;19.224;2022-11-20T09:07:29;98662.05;;;-2.87;83.79
75247;BME280;63844;50.042;19.224;2022-11-20T09:09:56;98656.89;;;-2.79;83.65
75247;BME280;63844;50.042;19.224;2022-11-20T09:12:23;98658.83;;;-2.72;83.74
75247;BME280;63844;50.042;19.224;2022-11-20T09:14:49;98659.94;;;-2.66;83.52
75247;BME280;63844;50.042;19.224;2022-11-20T09:17:16;98664.02;;;-2.62;83.46
75247;BME280;63844;50.042;19.224;2022-11-20T09:19:43;98663.58;;;-2.57;83.29
75247;BME280;63844;50.042;19.224;2022-11-20T09:22:09;98661.38;;;-2.50;83.60
75247;BME280;63844;50.042;19.224;2022-11-20T09:24:36;98658.09;;;-2.41;83.26
75247;BME280;63844;50.042;19.224;2022-11-20T09:27:04;98656.90;;;-2.34;83.24
75247;BME280;63844;50.042;19.224;2022-11-20T09:29:31;98659.48;;;-2.24;83.20
75247;BME280;63844;50.042;19.224;2022-11-20T09:31:57;98653.35;;;-2.21;83.23
75247;BME280;63844;50.042;19.224;2022-11-20T09:34:24;98656.23;;;-2.17;83.11
75247;BME280;63844;50.042;19.224;2022-11-20T09:36:50;98660.85;;;-2.06;83.07
75247;BME280;63844;50.042;19.224;2022-11-20T09:39:16;98656.75;;;-2.00;82.70
75247;BME280;63844;50.042;19.224;2022-11-20T09:41:58;98660.58;;;-2.00;82.55
75247;BME280;63844;50.042;19.224;2022-11-20T09:52:36;98666.34;;;-1.94;82.20
75247;BME280;63844;50.042;19.224;2022-11-20T09:55:09;98670.25;;;-1.90;82.21
75247;BME280;63844;50.042;19.224;2022-11-20T09:57:38;98663.95;;;-1.88;82.17
75247;BME280;63844;50.042;19.224;2022-11-20T10:00:10;98662.52;;;-1.86;82.35
75247;BME280;63844;50.042;19.224;2022-11-20T10:02:46;98653.94;;;-1.82;82.38
75247;BME280;63844;50.042;19.224;2022-11-20T10:05:30;98648.08;;;-1.75;82.42
75247;BME280;63844;50.042;19.224;2022-11-20T10:08:19;98646.67;;;-1.68;82.37
75247;BME280;63844;50.042;19.224;2022-11-20T10:10:54;98643.15;;;-1.58;82.25
75247;BME280;63844;50.042;19.224;2022-11-20T10:13:39;98638.70;;;-1.52;81.86
75247;BME280;63844;50.042;19.224;2022-11-20T10:16:35;98635.67;;;-1.49;81.59
75247;BME280;63844;50.042;19.224;2022-11-20T10:22:14;98634.92;;;-1.39;81.59
75247;BME280;63844;50.042;19.224;2022-11-20T10:24:56;98634.92;;;-1.39;81.72
75247;BME280;63844;50.042;19.224;2022-11-20T10:27:37;98629.86;;;-1.38;81.77
75247;BME280;63844;50.042;19.224;2022-11-20T10:30:12;98627.19;;;-1.35;81.55
75247;BME280;63844;50.042;19.224;2022-11-20T10:32:52;98617.59;;;-1.25;81.73
75247;BME280;63844;50.042;19.224;2022-11-20T10:38:00;98608.14;;;-1.16;81.39
75247;BME280;63844;50.042;19.224;2022-11-20T10:40:46;98600.18;;;-1.10;80.79
75247;BME280;63844;50.042;19.224;2022-11-20T10:43:29;98598.59;;;-1.02;81.40
75247;BME280;63844;50.042;19.224;2022-11-20T10:46:01;98594.45;;;-0.97;81.39
75247;BME280;63844;50.042;19.224;2022-11-20T10:48:31;98596.30;;;-0.94;81.07
75247;BME280;63844;50.042;19.224;2022-11-20T10:53:51;98595.20;;;-0.85;81.11
75247;BME280;63844;50.042;19.224;2022-11-20T10:56:38;98595.13;;;-0.89;80.76
75247;BME280;63844;50.042;19.224;2022-11-20T11:01:53;98598.30;;;-0.97;80.44
75247;BME280;63844;50.042;19.224;2022-11-20T11:04:44;98589.98;;;-0.98;80.67
75247;BME280;63844;50.042;19.224;2022-11-20T11:07:27;98590.94;;;-0.95;81.07
75247;BME280;63844;50.042;19.224;2022-11-20T11:09:57;98589.73;;;-0.88;81.48
75247;BME280;63844;50.042;19.224;2022-11-20T11:12:24;98582.37;;;-0.86;81.10
75247;BME280;63844;50.042;19.224;2022-11-20T11:14:53;98582.93;;;-0.81;81.15
75247;BME280;63844;50.042;19.224;2022-11-20T11:17:32;98576.71;;;-0.76;80.90
75247;BME280;63844;50.042;19.224;2022-11-20T11:20:16;98571.50;;;-0.70;80.81
75247;BME280;63844;50.042;19.224;2022-11-20T11:22:50;98564.45;;;-0.60;80.49
75247;BME280;63844;50.042;19.224;2022-11-20T11:25:27;98565.55;;;-0.50;80.53
75247;BME280;63844;50.042;19.224;2022-11-20T11:27:58;98569.92;;;-0.44;80.05
75247;BME280;63844;50.042;19.224;2022-11-20T11:30:26;98569.79;;;-0.45;79.41
75247;BME280;63844;50.042;19.224;2022-11-20T11:33:05;98569.26;;;-0.45;79.03
75247;BME280;63844;50.042;19.224;2022-11-20T11:35:33;98565.27;;;-0.40;79.88
75247;BME280;63844;50.042;19.224;2022-11-20T11:38:06;98566.84;;;-0.40;79.76
75247;BME280;63844;50.042;19.224;2022-11-20T11:40:35;98567.66;;;-0.45;78.28
75247;BME280;63844;50.042;19.224;2022-11-20T11:43:06;98568.59;;;-0.34;79.22
75247;BME280;63844;50.042;19.224;2022-11-20T11:45:54;98574.61;;;-0.32;78.90
75247;BME280;63844;50.042;19.224;2022-11-20T11:48:21;98565.63;;;-0.34;78.51
75247;BME280;63844;50.042;19.224;2022-11-20T11:50:50;98568.05;;;-0.34;78.38
75247;BME280;63844;50.042;19.224;2022-11-20T11:53:19;98570.70;;;-0.30;77.69
75247;BME280;63844;50.042;19.224;2022-11-20T11:55:53;98566.88;;;-0.29;78.20
75247;BME280;63844;50.042;19.224;2022-11-20T12:04:21;98552.92;;;-0.22;76.86
75247;BME280;63844;50.042;19.224;2022-11-20T12:06:56;98549.91;;;-0.20;78.21
75247;BME280;63844;50.042;19.224;2022-11-20T12:09:34;98546.36;;;-0.17;77.69
75247;BME280;63844;50.042;19.224;2022-11-20T12:12:18;98538.16;;;-0.11;76.35
75247;BME280;63844;50.042;19.224;2022-11-20T12:14:47;98535.73;;;-0.06;75.33
75247;BME280;63844;50.042;19.224;2022-11-20T12:17:16;98534.69;;;0.00;75.79
75247;BME280;63844;50.042;19.224;2022-11-20T12:19:44;98527.93;;;0.05;76.36
75247;BME280;63844;50.042;19.224;2022-11-20T12:25:16;98524.09;;;0.00;75.41
75247;BME280;63844;50.042;19.224;2022-11-20T12:30:21;98523.27;;;0.04;76.09
75247;BME280;63844;50.042;19.224;2022-11-20T12:41:11;98514.07;;;0.20;76.89
75247;BME280;63844;50.042;19.224;2022-11-20T12:44:00;98508.68;;;0.31;76.84
75247;BME280;63844;50.042;19.224;2022-11-20T12:47:16;98504.80;;;0.43;75.44
75247;BME280;63844;50.042;19.224;2022-11-20T12:52:56;98485.34;;;0.68;75.66
75247;BME280;63844;50.042;19.224;2022-11-20T12:55:39;98480.32;;;0.82;74.03
75247;BME280;63844;50.042;19.224;2022-11-20T12:58:18;98478.90;;;1.07;74.54
75247;BME280;63844;50.042;19.224;2022-11-20T13:00:54;98472.06;;;1.13;73.54
75247;BME280;63844;50.042;19.224;2022-11-20T13:03:34;98473.31;;;1.17;73.98
75247;BME280;63844;50.042;19.224;2022-11-20T13:06:16;98471.38;;;1.18;73.48
75247;BME280;63844;50.042;19.224;2022-11-20T13:08:54;98469.14;;;1.07;72.47
75247;BME280;63844;50.042;19.224;2022-11-20T13:11:32;98466.78;;;1.00;74.41
75247;BME280;63844;50.042;19.224;2022-11-20T13:14:26;98465.42;;;0.89;74.27
75247;BME280;63844;50.042;19.224;2022-11-20T13:17:01;98460.88;;;0.80;74.49
75247;BME280;63844;50.042;19.224;2022-11-20T13:19:31;98462.04;;;0.81;74.78
75247;BME280;63844;50.042;19.224;2022-11-20T13:21:57;98462.27;;;0.85;73.55
75247;BME280;63844;50.042;19.224;2022-11-20T13:24:26;98460.96;;;1.02;73.57
75247;BME280;63844;50.042;19.224;2022-11-20T13:29:35;98454.72;;;1.01;74.50
75247;BME280;63844;50.042;19.224;2022-11-20T13:32:12;98454.17;;;0.92;74.48
75247;BME280;63844;50.042;19.224;2022-11-20T13:34:51;98447.36;;;0.84;74.34
75247;BME280;63844;50.042;19.224;2022-11-20T13:37:38;98443.98;;;0.80;73.87
75247;BME280;63844;50.042;19.224;2022-11-20T13:40:20;98441.89;;;0.80;74.28
75247;BME280;63844;50.042;19.224;2022-11-20T13:45:30;98436.68;;;0.69;75.39
75247;BME280;63844;50.042;19.224;2022-11-20T13:48:02;98438.19;;;0.46;75.70
75247;BME280;63844;50.042;19.224;2022-11-20T13:56:18;98437.40;;;0.18;76.45
75247;BME280;63844;50.042;19.224;2022-11-20T13:59:04;98438.70;;;0.10;76.90
75247;BME280;63844;50.042;19.224;2022-11-20T14:01:33;98433.67;;;0.05;77.10
75247;BME280;63844;50.042;19.224;2022-11-20T14:04:07;98434.52;;;-0.05;77.80
75247;BME280;63844;50.042;19.224;2022-11-20T14:06:42;98433.23;;;-0.04;78.04
75247;BME280;63844;50.042;19.224;2022-11-20T14:09:12;98430.29;;;-0.04;78.35
75247;BME280;63844;50.042;19.224;2022-11-20T14:11:46;98427.59;;;-0.02;78.26
75247;BME280;63844;50.042;19.224;2022-11-20T14:14:15;98423.35;;;-0.10;78.48
75247;BME280;63844;50.042;19.224;2022-11-20T14:16:43;98428.10;;;-0.12;78.58